Time;durP1;ratioP1;P1;durP2;ratioP2;P2;SDS_P1;SDS_P2;PMS_P1;PMS_P2;Temp;Humidity;BMP_temperature;BMP_pressure;BME280_temperature;BME280_humidity;BME280_pressure;Samples;Min_cycle;Max_cycle;Signal;HPM_P1;HPM_P2
2022/12/30 00:02:02;;;;;;;14.05;2.70;;;;;;;;;;5164250;27;20554;-71
2022/12/30 00:04:28;;;;;;;12.45;2.85;;;;;;;;;;5168071;27;20054;-73
2022/12/30 00:06:55;;;;;;;16.90;2.47;;;;;;;;;;5165259;27;20047;-72
2022/12/30 00:09:21;;;;;;;17.00;2.83;;;;;;;;;;5166815;27;20086;-73
2022/12/30 00:11:47;;;;;;;15.27;1.88;;;;;;;;;;5166802;27;20496;-74
2022/12/30 00:33:45;;;;;;;;;;;;;;;;;;5167449;27;20050;-71
2022/12/30 00:36:11;;;;;;;;;;;;;;;;;;5159720;27;45739;-72
2022/12/30 00:38:38;;;;;;;;;;;;;;;;;;5160771;27;47183;-73
2022/12/30 00:43:49;;;;;;;12.90;2.20;;;;;;;;;;5161570;27;48216;-74
2022/12/30 00:46:15;;;;;;;14.70;4.05;;;;;;;;;;5164349;27;20050;-73
2022/12/30 00:56:56;;;;;;;12.02;1.90;;;;;;;;;;5163615;27;20142;-72
2022/12/30 00:59:22;;;;;;;13.60;2.72;;;;;;;;;;5166427;27;20047;-72
2022/12/30 01:01:49;;;;;;;11.38;2.15;;;;;;;;;;5164398;27;20077;-73
2022/12/30 01:04:15;;;;;;;12.63;2.10;;;;;;;;;;5166159;27;20047;-71
2022/12/30 01:06:42;;;;;;;11.32;2.17;;;;;;;;;;5164837;27;20496;-71
2022/12/30 01:09:08;;;;;;;11.55;1.85;;;;;;;;;;5147083;27;20062;-73
2022/12/30 01:11:34;;;;;;;13.45;2.15;;;;;;;;;;5166083;27;20051;-74
2022/12/30 01:14:01;;;;;;;12.88;2.47;;;;;;;;;;5164921;27;20042;-72
2022/12/30 01:16:27;;;;;;;13.82;2.53;;;;;;;;;;5152756;27;20645;-72
2022/12/30 01:18:53;;;;;;;10.27;2.22;;;;;;;;;;5166968;27;20079;-74
2022/12/30 01:21:20;;;;;;;9.82;1.70;;;;;;;;;;5165144;27;20052;-74
2022/12/30 01:23:46;;;;;;;13.48;2.13;;;;;;;;;;5164965;27;20046;-73
2022/12/30 01:26:12;;;;;;;12.48;1.80;;;;;;;;;;5165897;27;20046;-73
2022/12/30 01:28:39;;;;;;;10.88;1.75;;;;;;;;;;5166532;27;20053;-71
2022/12/30 01:31:07;;;;;;;10.60;1.95;;;;;;;;;;5163571;27;20058;-74
2022/12/30 01:33:34;;;;;;;7.63;1.92;;;;;;;;;;5165790;27;20047;-73
2022/12/30 01:36:01;;;;;;;14.98;2.00;;;;;;;;;;5144016;27;20057;-73
2022/12/30 01:38:28;;;;;;;7.53;1.88;;;;;;;;;;5160581;27;20055;-69
2022/12/30 01:40:54;;;;;;;10.65;2.22;;;;;;;;;;5165864;27;20053;-73
2022/12/30 01:43:37;;;;;;;6.97;1.42;;;;;;;;;;5166556;27;20046;-73
2022/12/30 01:46:05;;;;;;;11.70;2.00;;;;;;;;;;5145694;27;20308;-70
2022/12/30 01:48:32;;;;;;;17.27;2.22;;;;;;;;;;5166018;27;20058;-73
2022/12/30 01:51:01;;;;;;;6.07;1.38;;;;;;;;;;5164911;27;20353;-73
2022/12/30 01:53:29;;;;;;;8.93;2.28;;;;;;;;;;5165029;27;20058;-72
2022/12/30 01:55:59;;;;;;;14.45;1.95;;;;;;;;;;5163668;27;20138;-73
2022/12/30 01:58:27;;;;;;;9.88;2.80;;;;;;;;;;5162544;27;20058;-73
2022/12/30 02:00:54;;;;;;;16.25;3.50;;;;;;;;;;5165144;27;20053;-72
2022/12/30 02:03:20;;;;;;;9.65;1.60;;;;;;;;;;5156385;27;20057;-73
2022/12/30 02:05:47;;;;;;;13.07;2.28;;;;;;;;;;5163825;27;20132;-72
2022/12/30 02:08:18;;;;;;;8.02;1.85;;;;;;;;;;5165349;27;20059;-71
2022/12/30 02:10:46;;;;;;;7.80;1.90;;;;;;;;;;5159887;27;20055;-71
2022/12/30 02:13:14;;;;;;;11.77;2.30;;;;;;;;;;5163727;27;20062;-73
2022/12/30 02:16:10;;;;;;;13.45;2.38;;;;;;;;;;5164588;27;20053;-72
2022/12/30 02:18:49;;;;;;;15.10;3.05;;;;;;;;;;5116019;27;20047;-72
2022/12/30 02:21:34;;;;;;;8.10;2.40;;;;;;;;;;5117114;27;20136;-72
2022/12/30 02:24:03;;;;;;;7.22;2.08;;;;;;;;;;5084321;28;20048;-71
2022/12/30 02:26:35;;;;;;;8.35;2.22;;;;;;;;;;5096124;27;20052;-73
2022/12/30 02:29:20;;;;;;;11.35;2.00;;;;;;;;;;5113010;27;20051;-74
2022/12/30 02:31:49;;;;;;;6.47;1.85;;;;;;;;;;5120508;27;20214;-72
2022/12/30 02:34:24;;;;;;;14.60;2.67;;;;;;;;;;5119037;27;20404;-73
2022/12/30 02:36:53;;;;;;;12.75;3.00;;;;;;;;;;5120150;27;20051;-72
2022/12/30 02:39:38;;;;;;;13.15;2.55;;;;;;;;;;5119742;27;20052;-72
2022/12/30 02:45:00;;;;;;;;;;;;;;;;;;5121175;27;20858;-71
2022/12/30 02:47:39;;;;;;;4.72;2.30;;;;;;;;;;5116046;27;46730;-72
2022/12/30 02:52:53;;;;;;;11.98;2.35;;;;;;;;;;5121573;27;20796;-73
2022/12/30 02:55:19;;;;;;;8.68;2.67;;;;;;;;;;5139962;27;20047;-73
2022/12/30 02:57:46;;;;;;;16.45;3.33;;;;;;;;;;5162180;27;20053;-69
2022/12/30 03:05:55;;;;;;;13.27;2.78;;;;;;;;;;5162908;27;20050;-73
2022/12/30 03:08:22;;;;;;;;;;;;;;;;;;5147557;27;20501;-74
2022/12/30 03:13:41;;;;;;;17.08;3.13;;;;;;;;;;5158289;27;45230;-75
2022/12/30 03:16:30;;;;;;;10.25;2.88;;;;;;;;;;5163016;27;20100;-73
2022/12/30 03:18:58;;;;;;;17.17;3.13;;;;;;;;;;5163840;27;20051;-73
2022/12/30 03:21:25;;;;;;;17.23;3.05;;;;;;;;;;5159102;27;20058;-73
2022/12/30 03:29:27;;;;;;;13.77;2.95;;;;;;;;;;5154476;27;20141;-73
2022/12/30 03:31:54;;;;;;;7.95;2.63;;;;;;;;;;5164293;27;20077;-71
2022/12/30 03:34:21;;;;;;;10.05;2.80;;;;;;;;;;5163788;27;20138;-73
2022/12/30 03:36:49;;;;;;;10.00;2.42;;;;;;;;;;5163925;27;20134;-73
2022/12/30 03:39:27;;;;;;;9.55;2.88;;;;;;;;;;5164430;27;20058;-72
2022/12/30 03:41:53;;;;;;;13.63;2.58;;;;;;;;;;5163846;27;20499;-72
2022/12/30 03:44:20;;;;;;;12.60;3.05;;;;;;;;;;5164105;27;20134;-74
2022/12/30 03:46:47;;;;;;;8.43;2.50;;;;;;;;;;5162966;27;20119;-73
2022/12/30 03:49:14;;;;;;;13.90;2.63;;;;;;;;;;5163321;27;20385;-71
2022/12/30 03:51:41;;;;;;;7.03;2.20;;;;;;;;;;5163101;27;20081;-72
2022/12/30 03:54:07;;;;;;;10.13;3.92;;;;;;;;;;5163335;27;20047;-72
2022/12/30 03:56:33;;;;;;;8.07;2.47;;;;;;;;;;5163453;27;20177;-73
2022/12/30 03:59:00;;;;;;;9.68;2.83;;;;;;;;;;5163730;27;20042;-73
2022/12/30 04:01:26;;;;;;;13.93;2.90;;;;;;;;;;5166737;27;20057;-73
2022/12/30 04:03:53;;;;;;;20.38;2.85;;;;;;;;;;5167387;27;20042;-73
2022/12/30 04:06:19;;;;;;;15.93;2.95;;;;;;;;;;5167078;27;20090;-73
2022/12/30 04:08:46;;;;;;;5.80;2.28;;;;;;;;;;5167741;27;20050;-73
2022/12/30 04:11:12;;;;;;;10.18;2.28;;;;;;;;;;5167642;27;20130;-72
2022/12/30 04:13:39;;;;;;;13.10;2.80;;;;;;;;;;5167304;27;20146;-73
2022/12/30 04:16:05;;;;;;;11.55;2.53;;;;;;;;;;5167572;27;20888;-70
2022/12/30 04:18:31;;;;;;;24.48;3.25;;;;;;;;;;5167504;27;20082;-73
2022/12/30 04:20:58;;;;;;;12.05;2.50;;;;;;;;;;5153479;27;20611;-71
2022/12/30 04:23:24;;;;;;;11.95;2.40;;;;;;;;;;5146711;27;20089;-72
2022/12/30 04:25:50;;;;;;;20.50;4.00;;;;;;;;;;5159058;27;20742;-73
2022/12/30 04:28:18;;;;;;;10.98;2.45;;;;;;;;;;5167309;27;20077;-73
2022/12/30 04:30:47;;;;;;;10.65;2.72;;;;;;;;;;5165508;27;20047;-72
2022/12/30 04:33:13;;;;;;;13.60;2.63;;;;;;;;;;5156032;27;20057;-69
2022/12/30 04:35:40;;;;;;;20.92;3.60;;;;;;;;;;5165347;27;20042;-72
2022/12/30 04:38:06;;;;;;;9.40;2.58;;;;;;;;;;5166400;27;20138;-72
2022/12/30 04:40:32;;;;;;;12.40;2.47;;;;;;;;;;5164599;27;20057;-73
2022/12/30 04:42:59;;;;;;;8.25;2.35;;;;;;;;;;5166735;27;20129;-71
2022/12/30 04:45:25;;;;;;;16.13;2.97;;;;;;;;;;5165825;27;20118;-69
2022/12/30 04:47:51;;;;;;;11.57;2.70;;;;;;;;;;5167432;27;20047;-72
2022/12/30 04:50:18;;;;;;;8.10;3.10;;;;;;;;;;5165979;27;20051;-73
2022/12/30 04:52:44;;;;;;;8.00;1.90;;;;;;;;;;5160291;27;20054;-74
2022/12/30 04:55:10;;;;;;;14.27;2.47;;;;;;;;;;5160511;27;20043;-72
2022/12/30 04:57:37;;;;;;;12.43;2.67;;;;;;;;;;5168143;27;20601;-72
2022/12/30 05:00:05;;;;;;;12.65;2.40;;;;;;;;;;5166480;27;20560;-71
2022/12/30 05:02:31;;;;;;;8.65;2.58;;;;;;;;;;5164620;27;20054;-72
2022/12/30 05:04:58;;;;;;;19.52;3.95;;;;;;;;;;5165474;27;20050;-74
2022/12/30 05:07:24;;;;;;;10.57;2.08;;;;;;;;;;5163845;27;20055;-73
2022/12/30 05:09:50;;;;;;;6.30;2.55;;;;;;;;;;5151027;27;20042;-73
2022/12/30 05:12:17;;;;;;;9.57;2.53;;;;;;;;;;5166197;27;20186;-73
2022/12/30 05:14:43;;;;;;;9.63;2.55;;;;;;;;;;5166104;27;20500;-70
2022/12/30 05:17:10;;;;;;;17.65;3.10;;;;;;;;;;5166200;27;20077;-73
2022/12/30 05:19:37;;;;;;;11.68;2.70;;;;;;;;;;5164992;27;20054;-73
2022/12/30 05:22:03;;;;;;;18.23;2.33;;;;;;;;;;5165053;27;20595;-71
2022/12/30 05:27:14;;;;;;;14.02;4.18;;;;;;;;;;5165890;27;20054;-73
2022/12/30 05:29:41;;;;;;;14.90;2.60;;;;;;;;;;5165911;27;20051;-72
2022/12/30 05:32:07;;;;;;;9.73;3.45;;;;;;;;;;5165090;27;20047;-72
2022/12/30 05:34:33;;;;;;;6.75;2.10;;;;;;;;;;5166317;27;20078;-73
2022/12/30 05:37:00;;;;;;;17.33;2.22;;;;;;;;;;5163191;27;20059;-73
2022/12/30 05:39:26;;;;;;;13.45;2.92;;;;;;;;;;5162092;27;20137;-73
2022/12/30 05:41:52;;;;;;;13.20;2.92;;;;;;;;;;5164449;27;20047;-73
2022/12/30 05:44:18;;;;;;;10.35;2.55;;;;;;;;;;5160300;27;20039;-73
2022/12/30 05:46:45;;;;;;;13.05;3.80;;;;;;;;;;5164350;27;20534;-72
2022/12/30 05:49:11;;;;;;;11.50;2.60;;;;;;;;;;5165695;27;20508;-74
2022/12/30 05:51:37;;;;;;;12.35;2.40;;;;;;;;;;5166566;27;20047;-70
2022/12/30 05:54:04;;;;;;;10.35;2.80;;;;;;;;;;5165384;27;20500;-71
2022/12/30 05:56:30;;;;;;;10.68;2.42;;;;;;;;;;5148206;27;20079;-73
2022/12/30 05:58:57;;;;;;;14.35;2.67;;;;;;;;;;5165588;27;20061;-70
2022/12/30 06:01:23;;;;;;;9.73;2.45;;;;;;;;;;5146518;27;20039;-71
2022/12/30 06:03:49;;;;;;;11.93;1.80;;;;;;;;;;5159917;27;20100;-72
2022/12/30 06:06:16;;;;;;;6.65;2.15;;;;;;;;;;5166185;27;20050;-70
2022/12/30 06:08:42;;;;;;;6.60;2.33;;;;;;;;;;5167105;27;20516;-72
2022/12/30 06:11:09;;;;;;;14.25;2.50;;;;;;;;;;5166960;27;20657;-73
2022/12/30 06:13:35;;;;;;;10.30;2.78;;;;;;;;;;5159711;27;20059;-70
2022/12/30 06:16:01;;;;;;;10.23;2.15;;;;;;;;;;5160566;27;20049;-71
2022/12/30 06:18:28;;;;;;;12.95;2.92;;;;;;;;;;5164768;27;20043;-73
2022/12/30 06:20:55;;;;;;;14.35;2.38;;;;;;;;;;5165280;27;20074;-71
2022/12/30 06:23:22;;;;;;;11.82;2.25;;;;;;;;;;5156160;27;20075;-73
2022/12/30 06:25:52;;;;;;;13.98;2.40;;;;;;;;;;5149275;27;20051;-71
2022/12/30 06:28:18;;;;;;;15.98;3.67;;;;;;;;;;5159241;27;20059;-71
2022/12/30 06:30:44;;;;;;;10.90;2.13;;;;;;;;;;5165477;27;20137;-73
2022/12/30 06:33:11;;;;;;;10.25;2.10;;;;;;;;;;5164704;27;20054;-71
2022/12/30 06:35:37;;;;;;;12.60;2.60;;;;;;;;;;5164922;27;20543;-71
2022/12/30 06:38:04;;;;;;;10.48;2.40;;;;;;;;;;5164851;27;20051;-71
2022/12/30 06:40:30;;;;;;;8.35;2.35;;;;;;;;;;5165825;27;20104;-73
2022/12/30 06:42:56;;;;;;;17.02;2.72;;;;;;;;;;5159804;27;20051;-72
2022/12/30 06:45:23;;;;;;;10.95;2.97;;;;;;;;;;5160750;27;20748;-72
2022/12/30 06:47:49;;;;;;;9.63;2.40;;;;;;;;;;5165991;27;20544;-71
2022/12/30 06:50:15;;;;;;;18.45;3.17;;;;;;;;;;5164785;27;20475;-71
2022/12/30 06:52:42;;;;;;;7.60;2.17;;;;;;;;;;5164977;27;20058;-71
2022/12/30 06:55:08;;;;;;;9.20;2.20;;;;;;;;;;5165557;27;20142;-73
2022/12/30 06:57:35;;;;;;;16.08;2.47;;;;;;;;;;5164347;27;20545;-72
2022/12/30 07:00:03;;;;;;;8.20;2.03;;;;;;;;;;5164422;27;20051;-70
2022/12/30 07:02:29;;;;;;;16.33;2.53;;;;;;;;;;5162749;27;20505;-72
2022/12/30 07:04:56;;;;;;;14.57;3.45;;;;;;;;;;5165322;27;20054;-71
2022/12/30 07:07:22;;;;;;;13.23;2.65;;;;;;;;;;5164734;27;20057;-70
2022/12/30 07:09:49;;;;;;;11.07;3.00;;;;;;;;;;5165125;27;20053;-70
2022/12/30 07:12:15;;;;;;;14.73;3.38;;;;;;;;;;5164686;27;20054;-72
2022/12/30 07:14:41;;;;;;;9.20;2.72;;;;;;;;;;5164493;27;20051;-71
2022/12/30 07:17:08;;;;;;;12.40;2.72;;;;;;;;;;5164103;27;20576;-69
2022/12/30 07:19:34;;;;;;;10.32;3.45;;;;;;;;;;5150577;27;20563;-73
2022/12/30 07:22:00;;;;;;;10.60;3.78;;;;;;;;;;5163060;27;20082;-71
2022/12/30 07:24:27;;;;;;;9.32;2.90;;;;;;;;;;5149805;27;20467;-71
2022/12/30 07:26:53;;;;;;;15.57;3.25;;;;;;;;;;5164126;27;20103;-70
2022/12/30 07:29:20;;;;;;;14.90;3.47;;;;;;;;;;5164264;27;21030;-71
2022/12/30 07:31:46;;;;;;;14.70;3.20;;;;;;;;;;5159940;27;20046;-71
2022/12/30 07:34:12;;;;;;;16.13;3.45;;;;;;;;;;5159880;27;20111;-73
2022/12/30 07:36:39;;;;;;;19.90;3.25;;;;;;;;;;5167015;27;20493;-72
2022/12/30 07:39:06;;;;;;;15.13;3.45;;;;;;;;;;5166710;27;20138;-71
2022/12/30 07:41:33;;;;;;;12.45;2.88;;;;;;;;;;5165837;27;20529;-72
2022/12/30 07:44:00;;;;;;;12.10;3.50;;;;;;;;;;5160399;27;20174;-72
2022/12/30 07:46:26;;;;;;;12.82;3.20;;;;;;;;;;5156406;27;20086;-68
2022/12/30 07:48:53;;;;;;;14.10;3.20;;;;;;;;;;5165871;27;20092;-72
2022/12/30 07:51:19;;;;;;;13.38;3.45;;;;;;;;;;5167036;27;20055;-72
2022/12/30 07:53:46;;;;;;;9.35;3.30;;;;;;;;;;5161945;27;20881;-71
2022/12/30 07:56:13;;;;;;;11.25;3.03;;;;;;;;;;5145416;27;20489;-72
2022/12/30 07:58:39;;;;;;;16.13;3.65;;;;;;;;;;5162690;27;20203;-72
2022/12/30 08:01:07;;;;;;;16.90;3.70;;;;;;;;;;5162402;27;20050;-72
2022/12/30 08:03:33;;;;;;;11.73;3.75;;;;;;;;;;5161931;27;20054;-71
2022/12/30 08:06:04;;;;;;;9.85;3.15;;;;;;;;;;5164169;27;20124;-71
2022/12/30 08:08:31;;;;;;;13.68;3.90;;;;;;;;;;5166578;27;20450;-72
2022/12/30 08:10:58;;;;;;;14.27;2.90;;;;;;;;;;5165197;27;20170;-73
2022/12/30 08:13:24;;;;;;;11.68;3.90;;;;;;;;;;5167815;27;20092;-71
2022/12/30 08:15:50;;;;;;;14.88;3.08;;;;;;;;;;5167282;27;20042;-72
2022/12/30 08:18:17;;;;;;;8.10;3.00;;;;;;;;;;5167565;27;20055;-72
2022/12/30 08:20:43;;;;;;;11.60;2.92;;;;;;;;;;5167169;27;20543;-72
2022/12/30 08:23:10;;;;;;;9.55;2.90;;;;;;;;;;5164267;27;20432;-71
2022/12/30 08:25:36;;;;;;;13.65;3.58;;;;;;;;;;5164516;27;20095;-73
2022/12/30 08:28:02;;;;;;;8.85;2.97;;;;;;;;;;5161723;27;20062;-69
2022/12/30 08:30:29;;;;;;;9.43;2.22;;;;;;;;;;5165975;27;20135;-70
2022/12/30 08:32:55;;;;;;;11.85;3.28;;;;;;;;;;5167381;27;20178;-72
2022/12/30 08:35:21;;;;;;;15.52;3.60;;;;;;;;;;5158664;27;20049;-70
2022/12/30 08:37:48;;;;;;;14.75;2.95;;;;;;;;;;5167059;27;20051;-72
2022/12/30 08:40:14;;;;;;;13.93;2.78;;;;;;;;;;5151707;27;20047;-71
2022/12/30 08:42:41;;;;;;;12.43;2.75;;;;;;;;;;5147332;27;20051;-69
2022/12/30 08:45:07;;;;;;;11.25;2.75;;;;;;;;;;5156295;27;20054;-72
2022/12/30 08:47:34;;;;;;;8.68;3.67;;;;;;;;;;5164814;27;20385;-71
2022/12/30 08:50:01;;;;;;;6.45;2.58;;;;;;;;;;5153888;27;20055;-71
2022/12/30 08:52:28;;;;;;;8.73;2.80;;;;;;;;;;5162152;27;20523;-73
2022/12/30 08:54:54;;;;;;;5.38;2.63;;;;;;;;;;5165577;27;20161;-72
2022/12/30 08:57:20;;;;;;;9.15;3.47;;;;;;;;;;5156955;27;20464;-72
2022/12/30 08:59:47;;;;;;;9.93;2.55;;;;;;;;;;5149878;27;20568;-71
2022/12/30 09:02:14;;;;;;;10.90;2.78;;;;;;;;;;5167104;27;20054;-69
2022/12/30 09:04:41;;;;;;;6.45;3.20;;;;;;;;;;5158274;27;20070;-70
2022/12/30 09:07:07;;;;;;;7.40;1.80;;;;;;;;;;5153842;27;20524;-71
2022/12/30 09:09:53;;;;;;;10.35;4.22;;;;;;;;;;5166649;27;20047;-70
2022/12/30 09:12:20;;;;;;;9.40;2.53;;;;;;;;;;5160008;27;20054;-72
2022/12/30 09:14:46;;;;;;;6.97;2.58;;;;;;;;;;5166450;27;20503;-69
2022/12/30 09:17:12;;;;;;;5.93;2.00;;;;;;;;;;5165876;27;20054;-70
2022/12/30 09:19:39;;;;;;;13.30;3.13;;;;;;;;;;5160939;27;20058;-72
2022/12/30 09:22:06;;;;;;;9.13;2.72;;;;;;;;;;5165496;27;20531;-71
2022/12/30 09:24:32;;;;;;;14.02;3.60;;;;;;;;;;5167075;27;20047;-71
2022/12/30 09:26:58;;;;;;;7.93;2.72;;;;;;;;;;5165161;27;20549;-72
2022/12/30 09:29:26;;;;;;;11.82;2.95;;;;;;;;;;5166623;27;20050;-71
2022/12/30 09:31:52;;;;;;;9.48;2.53;;;;;;;;;;5164602;27;20042;-70
2022/12/30 09:34:19;;;;;;;7.30;2.50;;;;;;;;;;5140719;27;20078;-69
2022/12/30 09:36:45;;;;;;;10.07;2.90;;;;;;;;;;5162851;27;20104;-72
2022/12/30 09:39:13;;;;;;;6.65;2.50;;;;;;;;;;5164308;27;20057;-71
2022/12/30 09:44:52;;;;;;;10.48;2.80;;;;;;;;;;5159202;27;20047;-70
2022/12/30 09:47:30;;;;;;;7.45;3.20;;;;;;;;;;5157236;27;20513;-70
2022/12/30 09:49:59;;;;;;;10.15;3.13;;;;;;;;;;5163984;27;20100;-70
2022/12/30 09:52:29;;;;;;;11.10;2.75;;;;;;;;;;5162898;27;20516;-71
2022/12/30 09:55:15;;;;;;;8.32;2.58;;;;;;;;;;5158597;27;20051;-69
2022/12/30 09:57:41;;;;;;;;;;;;;;;;;;5157244;27;20119;-69
2022/12/30 10:00:08;;;;;;;;;;;;;;;;;;5163830;27;46639;-70
2022/12/30 10:02:46;;;;;;;11.45;3.15;;;;;;;;;;5165448;27;46100;-71
2022/12/30 10:05:13;;;;;;;9.82;2.47;;;;;;;;;;5155700;27;20499;-71
2022/12/30 10:07:48;;;;;;;7.18;2.50;;;;;;;;;;5158666;27;20081;-72
2022/12/30 10:10:17;;;;;;;9.70;2.60;;;;;;;;;;5161695;27;20056;-72
2022/12/30 10:12:56;;;;;;;3.67;2.13;;;;;;;;;;5145156;27;20531;-71
2022/12/30 10:15:33;;;;;;;11.20;2.60;;;;;;;;;;5156536;27;20481;-73
2022/12/30 10:18:00;;;;;;;9.77;2.50;;;;;;;;;;5166476;27;20054;-72
2022/12/30 10:20:45;;;;;;;7.35;2.83;;;;;;;;;;5153526;27;20104;-72
2022/12/30 10:23:31;;;;;;;7.93;2.88;;;;;;;;;;5145092;27;20433;-71
2022/12/30 10:25:57;;;;;;;6.10;1.90;;;;;;;;;;5145610;27;20051;-69
2022/12/30 10:28:34;;;;;;;7.55;2.33;;;;;;;;;;5161618;27;20562;-73
2022/12/30 10:31:01;;;;;;;7.47;2.20;;;;;;;;;;5156388;27;20553;-73
2022/12/30 10:33:27;;;;;;;8.73;2.55;;;;;;;;;;5126548;27;20051;-72
2022/12/30 10:36:02;;;;;;;4.20;2.05;;;;;;;;;;5157471;27;20046;-72
2022/12/30 10:38:30;;;;;;;5.30;2.50;;;;;;;;;;5165602;27;20055;-71
2022/12/30 10:40:56;;;;;;;4.70;1.63;;;;;;;;;;5137392;27;20580;-70
2022/12/30 10:43:41;;;;;;;8.85;1.85;;;;;;;;;;5165551;27;20043;-72
2022/12/30 10:46:33;;;;;;;3.20;1.30;;;;;;;;;;5150173;27;20169;-72
2022/12/30 10:49:09;;;;;;;6.63;1.50;;;;;;;;;;5153986;27;20257;-73
2022/12/30 10:51:36;;;;;;;3.85;1.27;;;;;;;;;;5147497;27;20051;-73
2022/12/30 10:54:07;;;;;;;4.90;1.75;;;;;;;;;;5156745;27;20057;-71
2022/12/30 10:56:34;;;;;;;8.10;1.77;;;;;;;;;;5154427;27;20161;-74
2022/12/30 10:59:06;;;;;;;5.88;1.48;;;;;;;;;;5163750;27;20142;-75
2022/12/30 11:01:35;;;;;;;6.90;1.90;;;;;;;;;;5161618;27;20139;-73
2022/12/30 11:04:02;;;;;;;3.75;1.50;;;;;;;;;;5159648;27;20077;-72
2022/12/30 11:06:30;;;;;;;4.25;1.52;;;;;;;;;;5156305;27;20051;-74
2022/12/30 11:09:12;;;;;;;6.25;1.95;;;;;;;;;;5162285;27;20042;-71
2022/12/30 11:14:55;;;;;;;4.38;1.50;;;;;;;;;;5163399;27;20065;-71
2022/12/30 11:17:25;;;;;;;5.85;1.67;;;;;;;;;;5160355;27;20504;-78
2022/12/30 11:19:52;;;;;;;7.80;1.80;;;;;;;;;;5158870;27;20051;-72
2022/12/30 11:22:19;;;;;;;8.80;1.65;;;;;;;;;;5153966;27;20051;-71
2022/12/30 11:24:55;;;;;;;5.30;1.42;;;;;;;;;;5166370;27;20126;-71
2022/12/30 11:27:35;;;;;;;5.13;1.27;;;;;;;;;;5165788;27;20501;-73
2022/12/30 11:30:01;;;;;;;6.15;1.63;;;;;;;;;;5165569;27;20186;-73
2022/12/30 11:32:27;;;;;;;4.95;1.52;;;;;;;;;;5167436;27;20042;-71
2022/12/30 11:34:54;;;;;;;2.22;1.27;;;;;;;;;;5165796;27;20046;-72
2022/12/30 11:37:24;;;;;;;5.35;1.75;;;;;;;;;;5158679;27;20125;-74
2022/12/30 11:39:50;;;;;;;9.98;2.22;;;;;;;;;;5164769;27;20138;-70
2022/12/30 11:42:27;;;;;;;2.90;1.70;;;;;;;;;;5165584;27;20174;-74
2022/12/30 11:45:11;;;;;;;4.30;1.48;;;;;;;;;;5166746;27;20122;-74
2022/12/30 11:47:42;;;;;;;4.03;1.38;;;;;;;;;;5166678;27;20042;-74
2022/12/30 11:50:15;;;;;;;5.38;1.52;;;;;;;;;;5167879;27;20078;-73
2022/12/30 11:52:47;;;;;;;5.63;1.80;;;;;;;;;;5166045;27;20141;-69
2022/12/30 11:55:22;;;;;;;6.30;2.78;;;;;;;;;;5167641;27;20073;-71
2022/12/30 11:57:49;;;;;;;6.47;1.67;;;;;;;;;;5165373;27;20059;-72
2022/12/30 12:00:21;;;;;;;4.75;1.65;;;;;;;;;;5161178;27;20062;-73
2022/12/30 12:02:48;;;;;;;3.50;1.52;;;;;;;;;;5160634;27;20134;-70
2022/12/30 12:05:39;;;;;;;6.60;1.60;;;;;;;;;;5164817;27;20078;-73
2022/12/30 12:08:27;;;;;;;4.43;1.50;;;;;;;;;;5166817;27;20158;-73
2022/12/30 12:10:56;;;;;;;5.70;1.42;;;;;;;;;;5161635;27;20051;-71
2022/12/30 12:13:33;;;;;;;8.93;2.08;;;;;;;;;;5159042;27;20126;-73
2022/12/30 12:15:59;;;;;;;8.95;1.67;;;;;;;;;;5158756;27;20057;-72
2022/12/30 12:18:27;;;;;;;11.10;1.75;;;;;;;;;;5163531;27;20054;-74
2022/12/30 12:20:54;;;;;;;4.35;1.38;;;;;;;;;;5160151;27;20175;-72
2022/12/30 12:23:23;;;;;;;9.60;1.85;;;;;;;;;;5159585;27;20051;-73
2022/12/30 12:25:58;;;;;;;11.65;2.00;;;;;;;;;;5158382;27;20047;-68
2022/12/30 12:28:29;;;;;;;10.02;1.80;;;;;;;;;;5158959;27;20138;-70
2022/12/30 12:30:55;;;;;;;11.48;2.05;;;;;;;;;;5158940;27;20057;-73
2022/12/30 12:33:27;;;;;;;8.35;2.25;;;;;;;;;;5155779;27;20054;-74
2022/12/30 12:35:59;;;;;;;6.13;1.83;;;;;;;;;;5156701;27;20057;-73
2022/12/30 12:38:58;;;;;;;7.18;2.10;;;;;;;;;;5160236;27;20238;-74
2022/12/30 12:41:25;;;;;;;7.18;2.53;;;;;;;;;;5117072;27;20508;-74
2022/12/30 12:44:05;;;;;;;4.43;1.70;;;;;;;;;;5163388;27;20047;-74
2022/12/30 12:46:34;;;;;;;9.73;2.35;;;;;;;;;;5165176;27;20051;-72
2022/12/30 12:49:19;;;;;;;10.07;2.20;;;;;;;;;;5150307;27;20053;-71
2022/12/30 12:51:46;;;;;;;5.10;1.63;;;;;;;;;;5159474;27;20055;-73
2022/12/30 12:54:12;;;;;;;8.38;2.20;;;;;;;;;;5164025;27;20043;-72
2022/12/30 12:57:17;;;;;;;11.60;2.35;;;;;;;;;;5159608;27;20554;-76
2022/12/30 12:59:51;;;;;;;8.07;1.95;;;;;;;;;;5155010;27;20130;-74
2022/12/30 13:02:17;;;;;;;7.97;1.35;;;;;;;;;;5166603;27;20057;-75
2022/12/30 13:05:09;;;;;;;8.18;2.05;;;;;;;;;;5166798;27;20054;-74
2022/12/30 13:07:54;;;;;;;5.70;1.83;;;;;;;;;;5164998;27;20528;-75
2022/12/30 13:10:47;;;;;;;11.52;2.60;;;;;;;;;;5164139;27;20059;-69
2022/12/30 13:13:44;;;;;;;7.60;1.98;;;;;;;;;;5159978;27;20253;-71
2022/12/30 13:16:19;;;;;;;5.65;2.42;;;;;;;;;;5158383;27;20049;-71
2022/12/30 13:18:47;;;;;;;7.53;1.85;;;;;;;;;;5147349;27;20124;-73
2022/12/30 13:21:18;;;;;;;7.55;2.08;;;;;;;;;;5163192;27;20484;-72
2022/12/30 13:23:47;;;;;;;5.57;2.13;;;;;;;;;;5163820;27;20046;-74
2022/12/30 13:26:13;;;;;;;7.45;1.65;;;;;;;;;;5163788;27;20058;-74
2022/12/30 13:28:50;;;;;;;4.43;1.80;;;;;;;;;;5142625;27;20141;-76
2022/12/30 13:31:19;;;;;;;3.83;1.75;;;;;;;;;;5151895;27;20050;-74
2022/12/30 13:34:04;;;;;;;9.10;2.88;;;;;;;;;;5164841;27;20054;-71
2022/12/30 13:36:49;;;;;;;6.68;1.52;;;;;;;;;;5161859;27;20078;-73
2022/12/30 13:39:34;;;;;;;7.33;1.57;;;;;;;;;;5155453;27;20061;-77
2022/12/30 13:42:19;;;;;;;2.97;1.70;;;;;;;;;;5147414;27;20291;-76
2022/12/30 13:44:47;;;;;;;5.50;2.70;;;;;;;;;;5148834;27;20058;-74
2022/12/30 13:47:26;;;;;;;11.20;1.90;;;;;;;;;;5158651;27;20145;-73
2022/12/30 13:49:56;;;;;;;4.93;1.58;;;;;;;;;;5150737;27;20055;-72
2022/12/30 13:52:24;;;;;;;7.32;1.63;;;;;;;;;;5163940;27;20054;-74
2022/12/30 13:54:51;;;;;;;5.07;1.63;;;;;;;;;;5164127;27;20095;-75
2022/12/30 13:57:37;;;;;;;4.25;1.65;;;;;;;;;;5161007;27;20398;-76
2022/12/30 14:00:10;;;;;;;4.75;1.42;;;;;;;;;;5164567;27;20054;-72
2022/12/30 14:02:45;;;;;;;9.82;2.13;;;;;;;;;;5157623;27;20528;-77
2022/12/30 14:05:31;;;;;;;6.95;1.98;;;;;;;;;;5142701;27;20086;-70
2022/12/30 14:07:57;;;;;;;8.32;1.45;;;;;;;;;;5160176;27;20135;-71
2022/12/30 14:10:41;;;;;;;6.13;1.95;;;;;;;;;;5160365;27;20043;-72
2022/12/30 14:13:14;;;;;;;4.88;1.80;;;;;;;;;;5152891;27;20910;-71
2022/12/30 14:15:41;;;;;;;6.70;1.50;;;;;;;;;;5161663;27;20104;-69
2022/12/30 14:18:18;;;;;;;3.92;1.40;;;;;;;;;;5145421;27;20074;-71
2022/12/30 14:20:52;;;;;;;6.45;2.15;;;;;;;;;;5152096;27;20566;-74
2022/12/30 14:23:38;;;;;;;3.20;1.52;;;;;;;;;;5153324;27;20129;-74
2022/12/30 14:26:22;;;;;;;6.10;1.88;;;;;;;;;;5154351;27;20475;-74
2022/12/30 14:28:50;;;;;;;9.15;1.77;;;;;;;;;;5140559;27;20043;-72
2022/12/30 14:31:26;;;;;;;9.02;1.92;;;;;;;;;;5162299;27;20429;-71
2022/12/30 14:33:54;;;;;;;6.50;2.05;;;;;;;;;;5165355;27;20099;-72
2022/12/30 14:36:21;;;;;;;3.33;1.85;;;;;;;;;;5160001;27;20083;-73
2022/12/30 14:38:48;;;;;;;6.70;2.33;;;;;;;;;;5147460;27;20087;-73
2022/12/30 14:41:37;;;;;;;6.45;2.10;;;;;;;;;;5139011;27;20523;-72
2022/12/30 14:44:18;;;;;;;2.05;1.85;;;;;;;;;;5162279;27;20232;-74
2022/12/30 14:46:44;;;;;;;5.90;1.92;;;;;;;;;;5144467;27;20486;-70
2022/12/30 14:49:14;;;;;;;3.75;2.03;;;;;;;;;;5159261;27;20507;-69
2022/12/30 14:52:03;;;;;;;5.97;2.20;;;;;;;;;;5157472;27;20042;-70
2022/12/30 14:54:48;;;;;;;4.28;2.22;;;;;;;;;;5148659;27;20047;-72
2022/12/30 14:57:20;;;;;;;4.90;3.03;;;;;;;;;;5151319;27;20896;-70
2022/12/30 14:59:49;;;;;;;5.30;3.70;;;;;;;;;;5150378;27;20581;-75
2022/12/30 15:02:19;;;;;;;5.00;2.00;;;;;;;;;;5150111;27;20138;-73
2022/12/30 15:04:46;;;;;;;2.40;2.20;;;;;;;;;;5163819;27;20047;-70
2022/12/30 15:07:18;;;;;;;4.80;2.08;;;;;;;;;;5155310;27;20043;-71
2022/12/30 15:09:45;;;;;;;3.30;2.25;;;;;;;;;;5149408;27;20047;-70
2022/12/30 15:12:12;;;;;;;3.72;2.25;;;;;;;;;;5153426;27;20051;-71
2022/12/30 15:14:44;;;;;;;4.68;3.00;;;;;;;;;;5147105;27;20071;-74
2022/12/30 15:17:23;;;;;;;6.70;2.30;;;;;;;;;;5152854;27;20094;-70
2022/12/30 15:19:50;;;;;;;3.72;3.08;;;;;;;;;;5157986;27;20123;-71
2022/12/30 15:22:20;;;;;;;1.77;1.58;;;;;;;;;;5158125;27;20053;-73
2022/12/30 15:24:47;;;;;;;3.70;2.83;;;;;;;;;;5154138;27;20797;-72
2022/12/30 15:27:16;;;;;;;4.47;2.08;;;;;;;;;;5159989;27;20532;-72
2022/12/30 15:29:42;;;;;;;2.03;1.63;;;;;;;;;;5153224;27;20053;-70
2022/12/30 15:32:38;;;;;;;7.85;4.45;;;;;;;;;;5152869;27;20062;-70
2022/12/30 15:35:08;;;;;;;5.28;2.10;;;;;;;;;;5132935;27;20050;-68
2022/12/30 15:37:34;;;;;;;7.90;4.20;;;;;;;;;;5156872;27;20046;-71
2022/12/30 15:40:04;;;;;;;18.20;13.13;;;;;;;;;;5151977;27;20617;-72
2022/12/30 15:42:39;;;;;;;3.92;3.10;;;;;;;;;;5155585;27;20130;-73
2022/12/30 15:45:19;;;;;;;2.60;2.40;;;;;;;;;;5160207;27;20504;-73
2022/12/30 15:47:45;;;;;;;4.25;1.92;;;;;;;;;;5152764;27;20101;-71
2022/12/30 15:50:27;;;;;;;5.07;2.70;;;;;;;;;;5161877;27;20506;-75
2022/12/30 15:52:53;;;;;;;2.40;2.20;;;;;;;;;;5150756;27;20055;-72
2022/12/30 15:55:20;;;;;;;3.13;1.77;;;;;;;;;;5157325;27;20046;-70